sensor_id;sensor_type;location;lat;lon;timestamp;pressure;altitude;pressure_sealevel;temperature;humidity
50384;BME280;36301;48.310;12.786;2022-07-22T00:01:04;96670.16;;;16.73;99.05
50384;BME280;36301;48.310;12.786;2022-07-22T00:03:30;96663.63;;;16.71;98.38
50384;BME280;36301;48.310;12.786;2022-07-22T00:05:57;96668.22;;;16.70;98.29
50384;BME280;36301;48.310;12.786;2022-07-22T00:08:23;96664.06;;;16.58;99.10
50384;BME280;36301;48.310;12.786;2022-07-22T00:10:50;96662.56;;;16.57;98.93
50384;BME280;36301;48.310;12.786;2022-07-22T00:13:16;96658.34;;;16.56;98.47
50384;BME280;36301;48.310;12.786;2022-07-22T00:15:43;96663.31;;;16.54;99.27
50384;BME280;36301;48.310;12.786;2022-07-22T00:18:09;96649.22;;;16.40;99.97
50384;BME280;36301;48.310;12.786;2022-07-22T00:20:36;96654.94;;;16.49;98.79
50384;BME280;36301;48.310;12.786;2022-07-22T00:23:02;96661.03;;;16.46;97.38
50384;BME280;36301;48.310;12.786;2022-07-22T00:25:29;96650.00;;;16.44;96.91
50384;BME280;36301;48.310;12.786;2022-07-22T00:27:55;96642.75;;;16.37;98.05
50384;BME280;36301;48.310;12.786;2022-07-22T00:30:22;96643.91;;;16.36;98.18
50384;BME280;36301;48.310;12.786;2022-07-22T00:32:49;96649.63;;;16.38;98.20
50384;BME280;36301;48.310;12.786;2022-07-22T00:35:16;96650.38;;;16.39;98.26
50384;BME280;36301;48.310;12.786;2022-07-22T00:37:42;96645.81;;;16.39;98.25
50384;BME280;36301;48.310;12.786;2022-07-22T00:40:09;96650.78;;;16.33;99.17
50384;BME280;36301;48.310;12.786;2022-07-22T00:42:36;96654.59;;;16.32;99.17
50384;BME280;36301;48.310;12.786;2022-07-22T00:45:04;96642.41;;;16.24;99.07
50384;BME280;36301;48.310;12.786;2022-07-22T00:47:31;96651.97;;;16.15;99.08
50384;BME280;36301;48.310;12.786;2022-07-22T00:49:58;96647.00;;;16.09;99.94
50384;BME280;36301;48.310;12.786;2022-07-22T00:52:25;96626.03;;;16.01;99.42
50384;BME280;36301;48.310;12.786;2022-07-22T00:54:51;96642.44;;;16.10;100.00
50384;BME280;36301;48.310;12.786;2022-07-22T00:57:18;96642.44;;;15.99;100.00
50384;BME280;36301;48.310;12.786;2022-07-22T00:59:45;96642.84;;;15.94;100.00
50384;BME280;36301;48.310;12.786;2022-07-22T01:02:11;96641.69;;;16.02;98.85
50384;BME280;36301;48.310;12.786;2022-07-22T01:04:39;96638.63;;;16.04;98.12
50384;BME280;36301;48.310;12.786;2022-07-22T01:07:06;96627.59;;;16.02;98.45
50384;BME280;36301;48.310;12.786;2022-07-22T01:09:32;96625.28;;;16.04;99.03
50384;BME280;36301;48.310;12.786;2022-07-22T01:12:00;96635.97;;;16.04;99.30
50384;BME280;36301;48.310;12.786;2022-07-22T01:14:27;96624.91;;;16.02;98.19
50384;BME280;36301;48.310;12.786;2022-07-22T01:16:53;96632.53;;;16.07;97.51
50384;BME280;36301;48.310;12.786;2022-07-22T01:19:20;96640.91;;;16.13;97.60
50384;BME280;36301;48.310;12.786;2022-07-22T01:21:47;96635.94;;;16.00;99.45
50384;BME280;36301;48.310;12.786;2022-07-22T01:24:13;96630.63;;;15.97;98.44
50384;BME280;36301;48.310;12.786;2022-07-22T01:26:40;96621.84;;;15.96;98.49
50384;BME280;36301;48.310;12.786;2022-07-22T01:29:07;96621.84;;;15.96;98.56
50384;BME280;36301;48.310;12.786;2022-07-22T01:31:33;96633.28;;;16.04;99.17
50384;BME280;36301;48.310;12.786;2022-07-22T01:34:00;96629.84;;;16.03;100.00
50384;BME280;36301;48.310;12.786;2022-07-22T01:36:27;96631.00;;;16.02;100.00
50384;BME280;36301;48.310;12.786;2022-07-22T01:38:53;96636.38;;;15.92;99.06
50384;BME280;36301;48.310;12.786;2022-07-22T01:41:20;96620.31;;;15.95;97.74
50384;BME280;36301;48.310;12.786;2022-07-22T01:43:47;96632.91;;;16.05;98.17
50384;BME280;36301;48.310;12.786;2022-07-22T01:46:13;96628.31;;;16.09;97.85
50384;BME280;36301;48.310;12.786;2022-07-22T01:48:40;96633.63;;;16.17;98.50
50384;BME280;36301;48.310;12.786;2022-07-22T01:51:07;96632.50;;;16.14;98.99
50384;BME280;36301;48.310;12.786;2022-07-22T01:53:33;96618.41;;;16.03;98.20
50384;BME280;36301;48.310;12.786;2022-07-22T01:56:00;96627.16;;;16.11;100.00
50384;BME280;36301;48.310;12.786;2022-07-22T01:58:27;96623.75;;;16.03;99.76
50384;BME280;36301;48.310;12.786;2022-07-22T02:00:53;96611.16;;;16.03;100.00
50384;BME280;36301;48.310;12.786;2022-07-22T02:03:20;96614.97;;;16.09;99.71
50384;BME280;36301;48.310;12.786;2022-07-22T02:05:46;96598.19;;;15.91;100.00
50384;BME280;36301;48.310;12.786;2022-07-22T02:08:13;96618.41;;;15.96;100.00
50384;BME280;36301;48.310;12.786;2022-07-22T02:10:40;96614.22;;;15.80;99.79
50384;BME280;36301;48.310;12.786;2022-07-22T02:13:06;96619.19;;;15.89;98.54
50384;BME280;36301;48.310;12.786;2022-07-22T02:15:33;96616.16;;;15.87;99.70
50384;BME280;36301;48.310;12.786;2022-07-22T02:18:08;96617.69;;;15.92;99.10
50384;BME280;36301;48.310;12.786;2022-07-22T02:20:35;96619.16;;;15.96;98.73
50384;BME280;36301;48.310;12.786;2022-07-22T02:23:01;96617.66;;;15.95;98.58
50384;BME280;36301;48.310;12.786;2022-07-22T02:25:28;96613.47;;;15.87;100.00
50384;BME280;36301;48.310;12.786;2022-07-22T02:27:54;96608.13;;;15.80;100.00
50384;BME280;36301;48.310;12.786;2022-07-22T02:30:21;96608.91;;;15.77;100.00
50384;BME280;36301;48.310;12.786;2022-07-22T02:32:47;96611.59;;;15.77;100.00
50384;BME280;36301;48.310;12.786;2022-07-22T02:35:14;96621.47;;;15.80;100.00
50384;BME280;36301;48.310;12.786;2022-07-22T02:37:40;96613.50;;;15.76;100.00
50384;BME280;36301;48.310;12.786;2022-07-22T02:40:08;96615.00;;;15.81;100.00
50384;BME280;36301;48.310;12.786;2022-07-22T02:42:35;96605.88;;;15.82;100.00
50384;BME280;36301;48.310;12.786;2022-07-22T02:45:02;96603.56;;;15.77;100.00
50384;BME280;36301;48.310;12.786;2022-07-22T02:47:29;96610.84;;;15.76;100.00
50384;BME280;36301;48.310;12.786;2022-07-22T02:49:55;96613.09;;;15.78;100.00
50384;BME280;36301;48.310;12.786;2022-07-22T02:52:22;96608.53;;;15.78;100.00
50384;BME280;36301;48.310;12.786;2022-07-22T02:54:48;96607.00;;;15.81;100.00
50384;BME280;36301;48.310;12.786;2022-07-22T02:57:15;96607.78;;;15.78;100.00
50384;BME280;36301;48.310;12.786;2022-07-22T02:59:42;96605.88;;;15.68;100.00
50384;BME280;36301;48.310;12.786;2022-07-22T03:02:08;96599.72;;;15.60;100.00
50384;BME280;36301;48.310;12.786;2022-07-22T03:04:35;96614.63;;;15.65;100.00
50384;BME280;36301;48.310;12.786;2022-07-22T03:07:01;96610.78;;;15.55;100.00
50384;BME280;36301;48.310;12.786;2022-07-22T03:09:28;96611.56;;;15.55;99.59
50384;BME280;36301;48.310;12.786;2022-07-22T03:11:54;96592.88;;;15.48;99.18
50384;BME280;36301;48.310;12.786;2022-07-22T03:14:21;96604.69;;;15.54;99.62
50384;BME280;36301;48.310;12.786;2022-07-22T03:16:48;96610.03;;;15.54;100.00
50384;BME280;36301;48.310;12.786;2022-07-22T03:19:15;96615.78;;;15.56;100.00
50384;BME280;36301;48.310;12.786;2022-07-22T03:21:41;96614.59;;;15.61;100.00
50384;BME280;36301;48.310;12.786;2022-07-22T03:24:08;96613.09;;;15.56;100.00
50384;BME280;36301;48.310;12.786;2022-07-22T03:26:34;96613.84;;;15.53;99.63
50384;BME280;36301;48.310;12.786;2022-07-22T03:29:01;96613.84;;;15.53;98.59
50384;BME280;36301;48.310;12.786;2022-07-22T03:31:27;96602.78;;;15.48;98.66
50384;BME280;36301;48.310;12.786;2022-07-22T03:33:54;96604.31;;;15.42;98.23
50384;BME280;36301;48.310;12.786;2022-07-22T03:36:20;96621.47;;;15.58;98.19
50384;BME280;36301;48.310;12.786;2022-07-22T03:38:47;96621.47;;;15.55;97.87
50384;BME280;36301;48.310;12.786;2022-07-22T03:41:13;96605.47;;;15.44;97.49
50384;BME280;36301;48.310;12.786;2022-07-22T03:43:40;96616.13;;;15.44;97.72
50384;BME280;36301;48.310;12.786;2022-07-22T03:46:06;96611.56;;;15.48;98.29
50384;BME280;36301;48.310;12.786;2022-07-22T03:48:33;96622.22;;;15.55;98.57
50384;BME280;36301;48.310;12.786;2022-07-22T03:50:59;96624.91;;;15.59;98.47
50384;BME280;36301;48.310;12.786;2022-07-22T03:53:26;96618.03;;;15.54;98.55
50384;BME280;36301;48.310;12.786;2022-07-22T03:55:52;96615.38;;;15.37;98.97
50384;BME280;36301;48.310;12.786;2022-07-22T03:58:19;96611.94;;;15.40;98.65
50384;BME280;36301;48.310;12.786;2022-07-22T04:00:45;96614.63;;;15.36;100.00
50384;BME280;36301;48.310;12.786;2022-07-22T04:03:12;96608.53;;;15.46;98.72
50384;BME280;36301;48.310;12.786;2022-07-22T04:05:38;96613.84;;;15.50;98.67
50384;BME280;36301;48.310;12.786;2022-07-22T04:08:05;96616.53;;;15.57;99.30
50384;BME280;36301;48.310;12.786;2022-07-22T04:10:31;96617.69;;;15.67;98.62
50384;BME280;36301;48.310;12.786;2022-07-22T04:12:58;96607.38;;;15.69;98.54
50384;BME280;36301;48.310;12.786;2022-07-22T04:15:24;96622.63;;;15.79;100.00
50384;BME280;36301;48.310;12.786;2022-07-22T04:17:51;96617.66;;;15.81;99.56
50384;BME280;36301;48.310;12.786;2022-07-22T04:20:17;96614.63;;;15.82;99.48
50384;BME280;36301;48.310;12.786;2022-07-22T04:22:44;96620.72;;;15.97;97.92
50384;BME280;36301;48.310;12.786;2022-07-22T04:25:11;96614.59;;;16.00;96.76
50384;BME280;36301;48.310;12.786;2022-07-22T04:27:37;96617.59;;;16.20;96.41
50384;BME280;36301;48.310;12.786;2022-07-22T04:30:04;96615.66;;;16.35;96.52
50384;BME280;36301;48.310;12.786;2022-07-22T04:32:31;96604.53;;;16.51;95.89
50384;BME280;36301;48.310;12.786;2022-07-22T04:34:58;96619.25;;;16.91;94.25
50384;BME280;36301;48.310;12.786;2022-07-22T04:37:24;96602.25;;;17.23;92.08
50384;BME280;36301;48.310;12.786;2022-07-22T04:39:51;96609.13;;;17.72;89.60
50384;BME280;36301;48.310;12.786;2022-07-22T04:42:18;96604.84;;;18.23;85.70
50384;BME280;36301;48.310;12.786;2022-07-22T04:44:44;96600.91;;;18.96;83.19
50384;BME280;36301;48.310;12.786;2022-07-22T04:47:11;96608.69;;;19.41;80.92
50384;BME280;36301;48.310;12.786;2022-07-22T04:49:38;96607.09;;;19.70;81.01
50384;BME280;36301;48.310;12.786;2022-07-22T04:52:05;96607.91;;;19.91;80.12
50384;BME280;36301;48.310;12.786;2022-07-22T04:54:35;96608.22;;;20.36;77.90
50384;BME280;36301;48.310;12.786;2022-07-22T04:57:01;96609.44;;;20.91;76.11
50384;BME280;36301;48.310;12.786;2022-07-22T04:59:28;96601.19;;;21.35;75.02
50384;BME280;36301;48.310;12.786;2022-07-22T05:01:55;96605.94;;;21.92;73.17
50384;BME280;36301;48.310;12.786;2022-07-22T05:04:21;96616.00;;;22.50;71.22
50384;BME280;36301;48.310;12.786;2022-07-22T05:06:48;96618.28;;;22.51;72.29
50384;BME280;36301;48.310;12.786;2022-07-22T05:09:15;96612.38;;;22.27;72.35
50384;BME280;36301;48.310;12.786;2022-07-22T05:11:41;96613.09;;;22.99;69.79
50384;BME280;36301;48.310;12.786;2022-07-22T05:14:08;96605.84;;;23.09;72.09
50384;BME280;36301;48.310;12.786;2022-07-22T05:16:37;96609.13;;;23.89;70.40
50384;BME280;36301;48.310;12.786;2022-07-22T05:19:04;96616.63;;;24.42;69.36
50384;BME280;36301;48.310;12.786;2022-07-22T05:21:32;96599.97;;;24.74;67.66
50384;BME280;36301;48.310;12.786;2022-07-22T05:23:58;96614.91;;;25.10;66.52
50384;BME280;36301;48.310;12.786;2022-07-22T05:26:25;96610.47;;;25.25;66.60
50384;BME280;36301;48.310;12.786;2022-07-22T05:28:55;96615.63;;;25.42;66.59
50384;BME280;36301;48.310;12.786;2022-07-22T05:31:22;96614.25;;;25.96;64.29
50384;BME280;36301;48.310;12.786;2022-07-22T05:33:49;96611.22;;;25.94;64.92
50384;BME280;36301;48.310;12.786;2022-07-22T05:36:15;96616.53;;;26.16;64.25
50384;BME280;36301;48.310;12.786;2022-07-22T05:38:42;96616.19;;;26.41;64.14
50384;BME280;36301;48.310;12.786;2022-07-22T05:41:08;96607.03;;;26.90;62.12
50384;BME280;36301;48.310;12.786;2022-07-22T05:43:35;96610.91;;;26.19;64.06
50384;BME280;36301;48.310;12.786;2022-07-22T05:46:01;96612.88;;;26.19;64.34
50384;BME280;36301;48.310;12.786;2022-07-22T05:48:28;96604.13;;;26.14;65.15
50384;BME280;36301;48.310;12.786;2022-07-22T05:50:55;96608.03;;;26.59;63.52
50384;BME280;36301;48.310;12.786;2022-07-22T05:53:21;96608.03;;;26.59;63.49
50384;BME280;36301;48.310;12.786;2022-07-22T05:55:48;96613.31;;;26.72;63.64
50384;BME280;36301;48.310;12.786;2022-07-22T05:58:15;96609.13;;;26.44;64.00
50384;BME280;36301;48.310;12.786;2022-07-22T06:00:41;96604.56;;;27.77;60.12
50384;BME280;36301;48.310;12.786;2022-07-22T06:03:08;96614.78;;;27.58;60.51
50384;BME280;36301;48.310;12.786;2022-07-22T06:05:43;96621.34;;;27.42;61.03
50384;BME280;36301;48.310;12.786;2022-07-22T06:08:09;96610.00;;;27.20;61.36
50384;BME280;36301;48.310;12.786;2022-07-22T06:10:36;96606.75;;;27.63;60.18
50384;BME280;36301;48.310;12.786;2022-07-22T06:13:02;96609.94;;;27.86;59.36
50384;BME280;36301;48.310;12.786;2022-07-22T06:15:29;96610.97;;;28.27;58.57
50384;BME280;36301;48.310;12.786;2022-07-22T06:17:55;96611.78;;;28.04;58.96
50384;BME280;36301;48.310;12.786;2022-07-22T06:20:22;96614.81;;;28.59;57.64
50384;BME280;36301;48.310;12.786;2022-07-22T06:22:48;96611.94;;;28.54;56.64
50384;BME280;36301;48.310;12.786;2022-07-22T06:25:15;96610.09;;;28.60;56.72
50384;BME280;36301;48.310;12.786;2022-07-22T06:28:01;96618.84;;;28.49;57.29
50384;BME280;36301;48.310;12.786;2022-07-22T06:30:28;96613.03;;;28.32;56.72
50384;BME280;36301;48.310;12.786;2022-07-22T06:32:54;96609.28;;;29.33;53.87
50384;BME280;36301;48.310;12.786;2022-07-22T06:35:22;96608.97;;;28.52;56.03
50384;BME280;36301;48.310;12.786;2022-07-22T06:37:52;96620.91;;;27.67;58.34
50384;BME280;36301;48.310;12.786;2022-07-22T06:40:32;96618.31;;;29.25;54.49
50384;BME280;36301;48.310;12.786;2022-07-22T06:42:59;96615.34;;;29.78;52.28
50384;BME280;36301;48.310;12.786;2022-07-22T06:45:26;96614.72;;;29.89;52.40
50384;BME280;36301;48.310;12.786;2022-07-22T06:47:53;96614.78;;;29.54;53.36
50384;BME280;36301;48.310;12.786;2022-07-22T06:50:21;96613.47;;;28.55;55.47
50384;BME280;36301;48.310;12.786;2022-07-22T06:52:49;96615.75;;;29.01;54.93
50384;BME280;36301;48.310;12.786;2022-07-22T06:55:16;96615.47;;;29.34;54.26
50384;BME280;36301;48.310;12.786;2022-07-22T06:57:43;96619.09;;;28.12;56.49
50384;BME280;36301;48.310;12.786;2022-07-22T07:00:09;96619.22;;;29.01;55.03
50384;BME280;36301;48.310;12.786;2022-07-22T07:02:36;96623.72;;;29.54;52.83
50384;BME280;36301;48.310;12.786;2022-07-22T07:05:03;96611.81;;;29.37;53.05
50384;BME280;36301;48.310;12.786;2022-07-22T07:07:30;96598.16;;;29.72;51.92
50384;BME280;36301;48.310;12.786;2022-07-22T07:09:58;96607.44;;;29.80;52.76
50384;BME280;36301;48.310;12.786;2022-07-22T07:12:25;96601.72;;;30.71;50.34
50384;BME280;36301;48.310;12.786;2022-07-22T07:14:52;96606.00;;;30.52;48.98
50384;BME280;36301;48.310;12.786;2022-07-22T07:17:39;96606.16;;;30.68;49.23
50384;BME280;36301;48.310;12.786;2022-07-22T07:20:06;96600.75;;;30.48;49.79
50384;BME280;36301;48.310;12.786;2022-07-22T07:22:33;96600.41;;;30.92;49.48
50384;BME280;36301;48.310;12.786;2022-07-22T07:25:04;96598.22;;;30.44;48.86
50384;BME280;36301;48.310;12.786;2022-07-22T07:27:50;96600.69;;;30.42;48.97
50384;BME280;36301;48.310;12.786;2022-07-22T07:30:19;96600.97;;;30.70;49.21
50384;BME280;36301;48.310;12.786;2022-07-22T07:32:46;96603.41;;;30.94;47.80
50384;BME280;36301;48.310;12.786;2022-07-22T07:35:13;96601.91;;;30.15;49.10
50384;BME280;36301;48.310;12.786;2022-07-22T07:37:39;96596.38;;;29.89;50.61
50384;BME280;36301;48.310;12.786;2022-07-22T07:40:06;96593.69;;;30.62;48.61
50384;BME280;36301;48.310;12.786;2022-07-22T07:42:33;96593.19;;;30.37;49.50
50384;BME280;36301;48.310;12.786;2022-07-22T07:44:59;96602.28;;;31.12;47.90
50384;BME280;36301;48.310;12.786;2022-07-22T07:47:26;96592.38;;;30.83;48.25
50384;BME280;36301;48.310;12.786;2022-07-22T07:49:53;96597.00;;;31.03;48.29
50384;BME280;36301;48.310;12.786;2022-07-22T07:52:19;96592.38;;;30.31;49.27
50384;BME280;36301;48.310;12.786;2022-07-22T07:54:46;96595.19;;;30.94;48.94
50384;BME280;36301;48.310;12.786;2022-07-22T07:57:32;96596.53;;;31.47;47.62
50384;BME280;36301;48.310;12.786;2022-07-22T08:00:00;96588.53;;;30.43;49.29
50384;BME280;36301;48.310;12.786;2022-07-22T08:02:27;96582.00;;;30.35;49.62
50384;BME280;36301;48.310;12.786;2022-07-22T08:04:54;96583.59;;;30.21;49.39
50384;BME280;36301;48.310;12.786;2022-07-22T08:07:24;96588.66;;;30.86;49.30
50384;BME280;36301;48.310;12.786;2022-07-22T08:09:52;96582.22;;;30.89;49.35
50384;BME280;36301;48.310;12.786;2022-07-22T08:12:38;96577.06;;;31.29;46.36
50384;BME280;36301;48.310;12.786;2022-07-22T08:15:05;96568.44;;;31.52;45.92
50384;BME280;36301;48.310;12.786;2022-07-22T08:17:34;96580.75;;;30.88;47.46
50384;BME280;36301;48.310;12.786;2022-07-22T08:20:03;96581.53;;;30.94;46.44
50384;BME280;36301;48.310;12.786;2022-07-22T08:22:30;96583.59;;;30.73;47.52
50384;BME280;36301;48.310;12.786;2022-07-22T08:24:57;96572.25;;;30.29;49.14
50384;BME280;36301;48.310;12.786;2022-07-22T08:27:23;96576.91;;;31.12;46.82
50384;BME280;36301;48.310;12.786;2022-07-22T08:29:50;96576.91;;;31.49;44.67
50384;BME280;36301;48.310;12.786;2022-07-22T08:32:16;96578.06;;;31.37;46.42
50384;BME280;36301;48.310;12.786;2022-07-22T08:34:43;96588.69;;;30.60;45.52
50384;BME280;36301;48.310;12.786;2022-07-22T08:37:10;96582.44;;;30.86;49.14
50384;BME280;36301;48.310;12.786;2022-07-22T08:39:36;96581.00;;;30.64;46.52
50384;BME280;36301;48.310;12.786;2022-07-22T08:42:03;96578.00;;;30.88;47.47
50384;BME280;36301;48.310;12.786;2022-07-22T08:44:31;96571.66;;;30.45;46.64
50384;BME280;36301;48.310;12.786;2022-07-22T08:46:59;96577.31;;;30.15;46.69
50384;BME280;36301;48.310;12.786;2022-07-22T08:49:46;96564.25;;;30.25;46.85
50384;BME280;36301;48.310;12.786;2022-07-22T08:52:12;96568.25;;;30.82;46.09
50384;BME280;36301;48.310;12.786;2022-07-22T08:54:39;96564.50;;;31.16;45.62
50384;BME280;36301;48.310;12.786;2022-07-22T08:57:05;96568.03;;;30.85;46.21
50384;BME280;36301;48.310;12.786;2022-07-22T08:59:32;96564.31;;;30.31;43.63
50384;BME280;36301;48.310;12.786;2022-07-22T09:02:06;96566.63;;;30.69;43.37
50384;BME280;36301;48.310;12.786;2022-07-22T09:04:50;96562.91;;;30.15;44.24
50384;BME280;36301;48.310;12.786;2022-07-22T09:07:27;96560.00;;;31.08;43.62
50384;BME280;36301;48.310;12.786;2022-07-22T09:09:55;96558.88;;;30.88;41.92
50384;BME280;36301;48.310;12.786;2022-07-22T09:12:22;96551.75;;;31.45;43.33
50384;BME280;36301;48.310;12.786;2022-07-22T09:14:51;96555.50;;;31.47;41.44
50384;BME280;36301;48.310;12.786;2022-07-22T09:17:34;96557.25;;;32.10;42.51
50384;BME280;36301;48.310;12.786;2022-07-22T09:20:16;96553.72;;;31.39;41.31
50384;BME280;36301;48.310;12.786;2022-07-22T09:22:52;96527.91;;;31.51;41.20
50384;BME280;36301;48.310;12.786;2022-07-22T09:25:33;96552.69;;;30.93;41.70
50384;BME280;36301;48.310;12.786;2022-07-22T09:30:40;96541.59;;;31.51;41.14
50384;BME280;36301;48.310;12.786;2022-07-22T09:33:08;96543.47;;;31.88;40.32
50384;BME280;36301;48.310;12.786;2022-07-22T09:35:36;96547.06;;;31.57;39.30
50384;BME280;36301;48.310;12.786;2022-07-22T09:38:05;96545.84;;;31.58;38.69
50384;BME280;36301;48.310;12.786;2022-07-22T09:40:35;96543.63;;;31.62;39.19
50384;BME280;36301;48.310;12.786;2022-07-22T09:43:24;96536.06;;;31.99;39.19
50384;BME280;36301;48.310;12.786;2022-07-22T09:45:54;96544.16;;;31.77;39.80
50384;BME280;36301;48.310;12.786;2022-07-22T09:48:24;96537.50;;;31.84;39.48
50384;BME280;36301;48.310;12.786;2022-07-22T09:50:54;96540.09;;;32.38;37.15
50384;BME280;36301;48.310;12.786;2022-07-22T09:53:24;96537.03;;;32.02;37.87
50384;BME280;36301;48.310;12.786;2022-07-22T09:55:51;96528.97;;;31.76;37.32
50384;BME280;36301;48.310;12.786;2022-07-22T09:58:18;96530.03;;;31.84;37.16
50384;BME280;36301;48.310;12.786;2022-07-22T10:00:45;96531.31;;;31.94;37.78
50384;BME280;36301;48.310;12.786;2022-07-22T10:03:17;96528.88;;;32.30;37.67
50384;BME280;36301;48.310;12.786;2022-07-22T10:05:44;96525.34;;;32.13;37.38
50384;BME280;36301;48.310;12.786;2022-07-22T10:08:12;96515.47;;;31.50;36.77
50384;BME280;36301;48.310;12.786;2022-07-22T10:10:39;96518.72;;;31.60;37.84
50384;BME280;36301;48.310;12.786;2022-07-22T10:13:07;96501.66;;;31.82;38.85
50384;BME280;36301;48.310;12.786;2022-07-22T10:15:34;96507.41;;;31.89;36.94
50384;BME280;36301;48.310;12.786;2022-07-22T10:18:22;96502.41;;;31.88;38.04
50384;BME280;36301;48.310;12.786;2022-07-22T10:21:00;96505.81;;;31.66;38.54
50384;BME280;36301;48.310;12.786;2022-07-22T10:23:27;96491.44;;;30.80;38.31
50384;BME280;36301;48.310;12.786;2022-07-22T10:25:58;96495.53;;;31.38;39.02
50384;BME280;36301;48.310;12.786;2022-07-22T10:31:28;96491.50;;;30.91;37.81
50384;BME280;36301;48.310;12.786;2022-07-22T10:33:56;96495.38;;;30.73;39.62
50384;BME280;36301;48.310;12.786;2022-07-22T10:36:35;96493.31;;;30.62;40.14
50384;BME280;36301;48.310;12.786;2022-07-22T10:39:08;96487.41;;;30.38;39.41
50384;BME280;36301;48.310;12.786;2022-07-22T10:41:38;96483.13;;;30.63;39.42
50384;BME280;36301;48.310;12.786;2022-07-22T10:44:05;96486.44;;;30.72;39.97
50384;BME280;36301;48.310;12.786;2022-07-22T10:49:15;96479.16;;;31.07;37.71
50384;BME280;36301;48.310;12.786;2022-07-22T10:52:08;96476.00;;;31.19;38.06
50384;BME280;36301;48.310;12.786;2022-07-22T10:55:20;96480.22;;;31.15;37.72
50384;BME280;36301;48.310;12.786;2022-07-22T10:57:47;96476.81;;;31.31;39.10
50384;BME280;36301;48.310;12.786;2022-07-22T11:00:15;96469.50;;;31.11;38.04
50384;BME280;36301;48.310;12.786;2022-07-22T11:02:42;96479.78;;;31.27;37.87
50384;BME280;36301;48.310;12.786;2022-07-22T11:05:09;96472.78;;;31.21;37.30
50384;BME280;36301;48.310;12.786;2022-07-22T11:10:14;96468.50;;;31.09;35.67
50384;BME280;36301;48.310;12.786;2022-07-22T11:12:48;96466.16;;;31.33;35.99
50384;BME280;36301;48.310;12.786;2022-07-22T11:15:15;96462.00;;;31.06;36.81
50384;BME280;36301;48.310;12.786;2022-07-22T11:17:42;96459.97;;;30.95;36.76
50384;BME280;36301;48.310;12.786;2022-07-22T11:20:11;96461.25;;;31.06;35.97
50384;BME280;36301;48.310;12.786;2022-07-22T11:22:38;96466.00;;;30.68;36.12
50384;BME280;36301;48.310;12.786;2022-07-22T11:25:10;96462.00;;;31.06;37.75
50384;BME280;36301;48.310;12.786;2022-07-22T11:27:37;96462.84;;;31.23;38.12
50384;BME280;36301;48.310;12.786;2022-07-22T11:30:04;96438.38;;;30.97;38.01
50384;BME280;36301;48.310;12.786;2022-07-22T11:32:42;96444.34;;;31.07;36.76
50384;BME280;36301;48.310;12.786;2022-07-22T11:35:12;96439.19;;;30.35;37.91
50384;BME280;36301;48.310;12.786;2022-07-22T11:37:39;96447.03;;;30.96;38.51
50384;BME280;36301;48.310;12.786;2022-07-22T11:40:07;96441.13;;;31.03;37.62
50384;BME280;36301;48.310;12.786;2022-07-22T11:42:34;96429.84;;;30.84;39.20
50384;BME280;36301;48.310;12.786;2022-07-22T11:45:02;96432.88;;;30.55;38.15
50384;BME280;36301;48.310;12.786;2022-07-22T11:47:29;96423.03;;;30.68;38.13
50384;BME280;36301;48.310;12.786;2022-07-22T11:49:55;96420.19;;;30.89;38.31
50384;BME280;36301;48.310;12.786;2022-07-22T11:52:22;96421.25;;;30.65;38.59
50384;BME280;36301;48.310;12.786;2022-07-22T11:54:48;96419.69;;;30.53;37.52
50384;BME280;36301;48.310;12.786;2022-07-22T11:57:16;96416.22;;;30.95;37.23
50384;BME280;36301;48.310;12.786;2022-07-22T11:59:42;96421.50;;;30.62;37.77
50384;BME280;36301;48.310;12.786;2022-07-22T12:02:09;96407.44;;;30.37;37.97
50384;BME280;36301;48.310;12.786;2022-07-22T12:04:40;96409.25;;;30.94;38.20
50384;BME280;36301;48.310;12.786;2022-07-22T12:07:10;96410.53;;;30.19;38.95
50384;BME280;36301;48.310;12.786;2022-07-22T12:09:37;96402.50;;;30.84;38.46
50384;BME280;36301;48.310;12.786;2022-07-22T12:12:05;96407.19;;;30.72;38.87
50384;BME280;36301;48.310;12.786;2022-07-22T12:14:33;96416.19;;;30.90;38.18
50384;BME280;36301;48.310;12.786;2022-07-22T12:17:08;96412.16;;;30.74;38.08
50384;BME280;36301;48.310;12.786;2022-07-22T12:19:39;96405.66;;;30.71;37.27
50384;BME280;36301;48.310;12.786;2022-07-22T12:22:12;96411.06;;;30.66;37.86
50384;BME280;36301;48.310;12.786;2022-07-22T12:24:43;96402.38;;;29.98;38.47
50384;BME280;36301;48.310;12.786;2022-07-22T12:27:14;96394.81;;;30.45;38.11
50384;BME280;36301;48.310;12.786;2022-07-22T12:29:43;96392.94;;;30.63;37.65
50384;BME280;36301;48.310;12.786;2022-07-22T12:32:17;96399.56;;;30.56;37.73
50384;BME280;36301;48.310;12.786;2022-07-22T12:34:46;96398.13;;;30.61;37.27
50384;BME280;36301;48.310;12.786;2022-07-22T12:37:24;96396.44;;;30.69;37.87
50384;BME280;36301;48.310;12.786;2022-07-22T12:39:56;96375.31;;;30.69;37.14
50384;BME280;36301;48.310;12.786;2022-07-22T12:42:32;96390.94;;;30.63;36.86
50384;BME280;36301;48.310;12.786;2022-07-22T12:45:16;96391.03;;;30.80;36.33
50384;BME280;36301;48.310;12.786;2022-07-22T12:53:15;96376.47;;;31.00;37.83
50384;BME280;36301;48.310;12.786;2022-07-22T12:55:50;96387.06;;;30.81;37.97
50384;BME280;36301;48.310;12.786;2022-07-22T12:58:19;96370.69;;;30.87;38.08
50384;BME280;36301;48.310;12.786;2022-07-22T13:00:49;96362.72;;;30.78;36.44
50384;BME280;36301;48.310;12.786;2022-07-22T13:03:16;96368.69;;;30.82;36.62
50384;BME280;36301;48.310;12.786;2022-07-22T13:05:49;96373.59;;;31.32;36.67
50384;BME280;36301;48.310;12.786;2022-07-22T13:08:16;96367.09;;;31.23;36.46
50384;BME280;36301;48.310;12.786;2022-07-22T13:10:43;96370.66;;;30.75;37.92